sensor_id;sensor_type;location;lat;lon;timestamp;pressure;altitude;pressure_sealevel;temperature;humidity
24486;BME280;13449;49.374;8.584;2023-02-13T00:01:36;102589.44;;;2.71;100.00
24486;BME280;13449;49.374;8.584;2023-02-13T00:04:02;102595.88;;;2.69;100.00
24486;BME280;13449;49.374;8.584;2023-02-13T00:06:31;102587.53;;;2.73;100.00
24486;BME280;13449;49.374;8.584;2023-02-13T00:08:58;102576.25;;;2.98;100.00
24486;BME280;13449;49.374;8.584;2023-02-13T00:11:24;102590.31;;;2.72;100.00
24486;BME280;13449;49.374;8.584;2023-02-13T00:13:57;102578.31;;;2.62;100.00
24486;BME280;13449;49.374;8.584;2023-02-13T00:16:32;102577.81;;;2.86;100.00
24486;BME280;13449;49.374;8.584;2023-02-13T00:18:58;102578.88;;;2.51;100.00
24486;BME280;13449;49.374;8.584;2023-02-13T00:21:25;102576.22;;;2.34;100.00
24486;BME280;13449;49.374;8.584;2023-02-13T00:23:59;102575.09;;;2.71;100.00
24486;BME280;13449;49.374;8.584;2023-02-13T00:26:25;102565.41;;;2.84;100.00
24486;BME280;13449;49.374;8.584;2023-02-13T00:28:55;102568.34;;;2.79;100.00
24486;BME280;13449;49.374;8.584;2023-02-13T00:31:22;102568.66;;;2.58;100.00
24486;BME280;13449;49.374;8.584;2023-02-13T00:33:51;102575.22;;;2.52;100.00
24486;BME280;13449;49.374;8.584;2023-02-13T00:36:20;102569.25;;;2.63;100.00
24486;BME280;13449;49.374;8.584;2023-02-13T00:38:48;102572.06;;;2.44;100.00
24486;BME280;13449;49.374;8.584;2023-02-13T00:41:17;102566.84;;;2.41;100.00
24486;BME280;13449;49.374;8.584;2023-02-13T00:43:46;102566.09;;;2.39;100.00
24486;BME280;13449;49.374;8.584;2023-02-13T00:46:14;102567.66;;;2.43;100.00
24486;BME280;13449;49.374;8.584;2023-02-13T00:48:45;102566.38;;;2.33;100.00
24486;BME280;13449;49.374;8.584;2023-02-13T00:51:23;102569.19;;;2.14;100.00
24486;BME280;13449;49.374;8.584;2023-02-13T00:53:50;102562.94;;;2.14;100.00
24486;BME280;13449;49.374;8.584;2023-02-13T00:56:16;102574.63;;;2.30;100.00
24486;BME280;13449;49.374;8.584;2023-02-13T00:58:43;102566.78;;;2.25;100.00
24486;BME280;13449;49.374;8.584;2023-02-13T01:01:15;102573.16;;;2.24;100.00
24486;BME280;13449;49.374;8.584;2023-02-13T01:03:53;102562.09;;;2.13;100.00
24486;BME280;13449;49.374;8.584;2023-02-13T01:06:24;102583.22;;;2.04;100.00
24486;BME280;13449;49.374;8.584;2023-02-13T01:08:53;102577.38;;;2.13;100.00
24486;BME280;13449;49.374;8.584;2023-02-13T01:11:19;102567.88;;;2.06;100.00
24486;BME280;13449;49.374;8.584;2023-02-13T01:13:49;102574.13;;;2.06;100.00
24486;BME280;13449;49.374;8.584;2023-02-13T01:16:15;102572.84;;;1.79;100.00
24486;BME280;13449;49.374;8.584;2023-02-13T01:18:43;102586.75;;;1.70;100.00
24486;BME280;13449;49.374;8.584;2023-02-13T01:21:18;102583.50;;;1.63;100.00
24486;BME280;13449;49.374;8.584;2023-02-13T01:23:45;102587.13;;;1.62;100.00
24486;BME280;13449;49.374;8.584;2023-02-13T01:26:17;102576.56;;;1.76;100.00
24486;BME280;13449;49.374;8.584;2023-02-13T01:28:47;102583.78;;;1.76;100.00
24486;BME280;13449;49.374;8.584;2023-02-13T01:31:13;102580.22;;;1.75;100.00
24486;BME280;13449;49.374;8.584;2023-02-13T01:33:42;102577.97;;;1.66;100.00
24486;BME280;13449;49.374;8.584;2023-02-13T01:36:11;102577.03;;;1.67;100.00
24486;BME280;13449;49.374;8.584;2023-02-13T01:38:39;102571.63;;;1.50;100.00
24486;BME280;13449;49.374;8.584;2023-02-13T01:41:06;102578.34;;;1.41;100.00
24486;BME280;13449;49.374;8.584;2023-02-13T01:43:45;102579.34;;;1.39;100.00
24486;BME280;13449;49.374;8.584;2023-02-13T01:46:17;102577.19;;;1.28;100.00
24486;BME280;13449;49.374;8.584;2023-02-13T01:48:50;102584.19;;;1.14;100.00
24486;BME280;13449;49.374;8.584;2023-02-13T01:51:24;102576.66;;;1.03;100.00
24486;BME280;13449;49.374;8.584;2023-02-13T01:53:57;102577.72;;;0.99;100.00
24486;BME280;13449;49.374;8.584;2023-02-13T01:56:42;102568.66;;;0.83;100.00
24486;BME280;13449;49.374;8.584;2023-02-13T01:59:17;102571.78;;;0.74;100.00
24486;BME280;13449;49.374;8.584;2023-02-13T02:01:50;102577.22;;;0.72;100.00
24486;BME280;13449;49.374;8.584;2023-02-13T02:04:26;102583.91;;;0.64;100.00
24486;BME280;13449;49.374;8.584;2023-02-13T02:07:09;102575.09;;;0.60;100.00
24486;BME280;13449;49.374;8.584;2023-02-13T02:09:44;102586.31;;;0.49;100.00
24486;BME280;13449;49.374;8.584;2023-02-13T02:14:48;102576.19;;;0.37;100.00
24486;BME280;13449;49.374;8.584;2023-02-13T02:17:15;102588.03;;;0.32;100.00
24486;BME280;13449;49.374;8.584;2023-02-13T02:19:50;102575.84;;;0.25;100.00
24486;BME280;13449;49.374;8.584;2023-02-13T02:22:33;102575.31;;;0.17;100.00
24486;BME280;13449;49.374;8.584;2023-02-13T02:28:09;102586.84;;;0.19;100.00
24486;BME280;13449;49.374;8.584;2023-02-13T02:33:59;102579.50;;;0.04;100.00
24486;BME280;13449;49.374;8.584;2023-02-13T02:36:41;102572.72;;;-0.05;100.00
24486;BME280;13449;49.374;8.584;2023-02-13T02:41:57;102579.81;;;-0.04;100.00
24486;BME280;13449;49.374;8.584;2023-02-13T02:44:43;102573.28;;;-0.19;100.00
24486;BME280;13449;49.374;8.584;2023-02-13T02:47:27;102575.09;;;0.01;100.00
24486;BME280;13449;49.374;8.584;2023-02-13T02:50:35;102577.72;;;-0.18;100.00
24486;BME280;13449;49.374;8.584;2023-02-13T02:55:47;102584.59;;;-0.32;100.00
24486;BME280;13449;49.374;8.584;2023-02-13T03:01:15;102575.34;;;-0.45;100.00
24486;BME280;13449;49.374;8.584;2023-02-13T03:04:02;102574.53;;;-0.47;100.00
24486;BME280;13449;49.374;8.584;2023-02-13T03:06:55;102582.75;;;-0.52;100.00
24486;BME280;13449;49.374;8.584;2023-02-13T03:09:36;102578.44;;;-0.56;100.00
24486;BME280;13449;49.374;8.584;2023-02-13T03:12:35;102581.25;;;-0.59;100.00
24486;BME280;13449;49.374;8.584;2023-02-13T03:15:24;102584.03;;;-0.61;100.00
24486;BME280;13449;49.374;8.584;2023-02-13T03:17:56;102586.75;;;-0.62;100.00
24486;BME280;13449;49.374;8.584;2023-02-13T03:20:53;102587.75;;;-0.65;100.00
24486;BME280;13449;49.374;8.584;2023-02-13T03:23:59;102583.13;;;-0.39;100.00
24486;BME280;13449;49.374;8.584;2023-02-13T03:26:37;102589.56;;;-0.65;100.00
24486;BME280;13449;49.374;8.584;2023-02-13T03:35:20;102599.13;;;-0.81;100.00
24486;BME280;13449;49.374;8.584;2023-02-13T03:38:41;102602.81;;;-0.84;100.00
24486;BME280;13449;49.374;8.584;2023-02-13T03:41:21;102603.94;;;-0.89;100.00
24486;BME280;13449;49.374;8.584;2023-02-13T03:44:08;102606.06;;;-0.98;100.00
24486;BME280;13449;49.374;8.584;2023-02-13T03:46:40;102611.47;;;-0.99;100.00
24486;BME280;13449;49.374;8.584;2023-02-13T03:49:10;102605.19;;;-0.98;100.00
24486;BME280;13449;49.374;8.584;2023-02-13T03:52:03;102604.44;;;-1.02;100.00
24486;BME280;13449;49.374;8.584;2023-02-13T03:54:43;102614.63;;;-0.89;100.00
24486;BME280;13449;49.374;8.584;2023-02-13T04:01:15;102610.25;;;-0.90;100.00
24486;BME280;13449;49.374;8.584;2023-02-13T04:06:50;102599.75;;;-0.97;100.00
24486;BME280;13449;49.374;8.584;2023-02-13T04:09:19;102610.72;;;-1.03;100.00
24486;BME280;13449;49.374;8.584;2023-02-13T04:14:26;102601.69;;;-1.00;100.00
24486;BME280;13449;49.374;8.584;2023-02-13T04:17:01;102604.34;;;-1.00;100.00
24486;BME280;13449;49.374;8.584;2023-02-13T04:19:32;102605.22;;;-1.00;100.00
24486;BME280;13449;49.374;8.584;2023-02-13T04:22:02;102600.94;;;-1.04;100.00
24486;BME280;13449;49.374;8.584;2023-02-13T04:24:32;102601.53;;;-0.97;100.00
24486;BME280;13449;49.374;8.584;2023-02-13T04:27:03;102601.63;;;-0.99;100.00
24486;BME280;13449;49.374;8.584;2023-02-13T04:29:29;102602.56;;;-1.00;100.00
24486;BME280;13449;49.374;8.584;2023-02-13T04:31:56;102603.56;;;-1.02;100.00
24486;BME280;13449;49.374;8.584;2023-02-13T04:34:25;102602.56;;;-1.00;100.00
24486;BME280;13449;49.374;8.584;2023-02-13T04:36:52;102596.56;;;-1.06;100.00
24486;BME280;13449;49.374;8.584;2023-02-13T04:39:30;102600.94;;;-1.04;100.00
24486;BME280;13449;49.374;8.584;2023-02-13T04:46:10;102609.84;;;-1.03;100.00
24486;BME280;13449;49.374;8.584;2023-02-13T04:49:18;102601.84;;;-1.05;100.00
24486;BME280;13449;49.374;8.584;2023-02-13T04:52:24;102598.19;;;-1.02;100.00
24486;BME280;13449;49.374;8.584;2023-02-13T04:59:22;102604.53;;;-1.05;100.00
24486;BME280;13449;49.374;8.584;2023-02-13T05:01:49;102600.94;;;-1.04;100.00
24486;BME280;13449;49.374;8.584;2023-02-13T05:04:16;102598.41;;;-1.08;100.00
24486;BME280;13449;49.374;8.584;2023-02-13T05:06:47;102602.81;;;-1.06;100.00
24486;BME280;13449;49.374;8.584;2023-02-13T05:09:15;102599.09;;;-1.02;100.00
24486;BME280;13449;49.374;8.584;2023-02-13T05:11:42;102599.53;;;-0.90;100.00
24486;BME280;13449;49.374;8.584;2023-02-13T05:14:09;102596.31;;;-1.00;100.00
24486;BME280;13449;49.374;8.584;2023-02-13T05:16:36;102599.81;;;-0.98;100.00
24486;BME280;13449;49.374;8.584;2023-02-13T05:19:03;102603.59;;;-1.04;100.00
24486;BME280;13449;49.374;8.584;2023-02-13T05:21:29;102607.28;;;-1.06;100.00
24486;BME280;13449;49.374;8.584;2023-02-13T05:24:14;102605.47;;;-1.06;100.00
24486;BME280;13449;49.374;8.584;2023-02-13T05:26:44;102609.22;;;-1.10;100.00
24486;BME280;13449;49.374;8.584;2023-02-13T05:29:10;102599.16;;;-1.05;100.00
24486;BME280;13449;49.374;8.584;2023-02-13T05:31:50;102608.38;;;-1.12;100.00
24486;BME280;13449;49.374;8.584;2023-02-13T05:34:18;102606.75;;;-1.16;100.00
24486;BME280;13449;49.374;8.584;2023-02-13T05:36:45;102605.94;;;-1.18;100.00
24486;BME280;13449;49.374;8.584;2023-02-13T05:39:12;102608.66;;;-1.19;100.00
24486;BME280;13449;49.374;8.584;2023-02-13T05:41:39;102604.34;;;-1.23;100.00
24486;BME280;13449;49.374;8.584;2023-02-13T05:44:07;102607.13;;;-1.25;100.00
24486;BME280;13449;49.374;8.584;2023-02-13T05:46:36;102603.31;;;-1.19;100.00
24486;BME280;13449;49.374;8.584;2023-02-13T05:49:05;102598.97;;;-1.22;100.00
24486;BME280;13449;49.374;8.584;2023-02-13T05:51:32;102604.66;;;-1.08;100.00
24486;BME280;13449;49.374;8.584;2023-02-13T05:53:58;102604.34;;;-1.23;100.00
24486;BME280;13449;49.374;8.584;2023-02-13T05:56:25;102590.19;;;-1.25;100.00
24486;BME280;13449;49.374;8.584;2023-02-13T05:58:56;102592.81;;;-1.24;100.00
24486;BME280;13449;49.374;8.584;2023-02-13T06:01:25;102593.94;;;-1.31;100.00
24486;BME280;13449;49.374;8.584;2023-02-13T06:03:56;102584.94;;;-1.28;100.00
24486;BME280;13449;49.374;8.584;2023-02-13T06:06:26;102584.94;;;-1.28;100.00
24486;BME280;13449;49.374;8.584;2023-02-13T06:08:52;102586.00;;;-1.32;100.00
24486;BME280;13449;49.374;8.584;2023-02-13T06:11:21;102596.88;;;-1.37;100.00
24486;BME280;13449;49.374;8.584;2023-02-13T06:13:48;102594.38;;;-1.41;100.00
24486;BME280;13449;49.374;8.584;2023-02-13T06:16:14;102599.50;;;-1.35;100.00
24486;BME280;13449;49.374;8.584;2023-02-13T06:18:41;102603.72;;;-1.30;100.00
24486;BME280;13449;49.374;8.584;2023-02-13T06:21:07;102602.47;;;-1.43;100.00
24486;BME280;13449;49.374;8.584;2023-02-13T06:23:34;102605.81;;;-1.38;100.00
24486;BME280;13449;49.374;8.584;2023-02-13T06:26:04;102599.84;;;-1.44;100.00
24486;BME280;13449;49.374;8.584;2023-02-13T06:28:32;102601.47;;;-1.40;100.00
24486;BME280;13449;49.374;8.584;2023-02-13T06:30:59;102604.19;;;-1.42;100.00
24486;BME280;13449;49.374;8.584;2023-02-13T06:33:26;102610.84;;;-1.29;100.00
24486;BME280;13449;49.374;8.584;2023-02-13T06:35:53;102612.47;;;-1.25;100.00
24486;BME280;13449;49.374;8.584;2023-02-13T06:38:19;102608.78;;;-1.22;100.00
24486;BME280;13449;49.374;8.584;2023-02-13T06:40:49;102616.06;;;-1.26;100.00
24486;BME280;13449;49.374;8.584;2023-02-13T06:43:16;102610.84;;;-1.29;100.00
24486;BME280;13449;49.374;8.584;2023-02-13T06:45:46;102619.75;;;-1.28;100.00
24486;BME280;13449;49.374;8.584;2023-02-13T06:48:13;102609.84;;;-1.26;100.00
24486;BME280;13449;49.374;8.584;2023-02-13T06:50:44;102617.94;;;-1.28;100.00
24486;BME280;13449;49.374;8.584;2023-02-13T06:53:11;102620.78;;;-1.32;100.00
24486;BME280;13449;49.374;8.584;2023-02-13T06:55:37;102622.47;;;-1.30;100.00
24486;BME280;13449;49.374;8.584;2023-02-13T06:58:06;102622.34;;;-1.27;100.00
24486;BME280;13449;49.374;8.584;2023-02-13T07:00:33;102628.66;;;-1.28;100.00
24486;BME280;13449;49.374;8.584;2023-02-13T07:03:01;102621.53;;;-1.29;100.00
24486;BME280;13449;49.374;8.584;2023-02-13T07:05:30;102624.22;;;-1.29;100.00
24486;BME280;13449;49.374;8.584;2023-02-13T07:07:59;102622.63;;;-1.11;100.00
24486;BME280;13449;49.374;8.584;2023-02-13T07:10:26;102624.41;;;-0.88;100.00
24486;BME280;13449;49.374;8.584;2023-02-13T07:12:52;102632.69;;;-0.71;100.00
24486;BME280;13449;49.374;8.584;2023-02-13T07:15:32;102625.09;;;-0.60;100.00
24486;BME280;13449;49.374;8.584;2023-02-13T07:17:59;102622.94;;;-0.74;100.00
24486;BME280;13449;49.374;8.584;2023-02-13T07:20:26;102629.34;;;-0.78;100.00
24486;BME280;13449;49.374;8.584;2023-02-13T07:23:00;102628.59;;;-0.81;100.00
24486;BME280;13449;49.374;8.584;2023-02-13T07:25:27;102633.16;;;-0.83;100.00
24486;BME280;13449;49.374;8.584;2023-02-13T07:27:54;102630.59;;;-0.86;100.00
24486;BME280;13449;49.374;8.584;2023-02-13T07:30:20;102637.38;;;-0.78;100.00
24486;BME280;13449;49.374;8.584;2023-02-13T07:32:47;102630.31;;;-0.79;100.00
24486;BME280;13449;49.374;8.584;2023-02-13T07:35:14;102626.75;;;-0.79;100.00
24486;BME280;13449;49.374;8.584;2023-02-13T07:37:40;102633.81;;;-0.78;100.00
24486;BME280;13449;49.374;8.584;2023-02-13T07:40:07;102625.69;;;-0.75;100.00
24486;BME280;13449;49.374;8.584;2023-02-13T07:42:34;102639.75;;;-0.70;100.00
24486;BME280;13449;49.374;8.584;2023-02-13T07:45:03;102644.81;;;-0.63;100.00
24486;BME280;13449;49.374;8.584;2023-02-13T07:47:33;102639.28;;;-0.58;100.00
24486;BME280;13449;49.374;8.584;2023-02-13T07:50:01;102645.34;;;-0.53;100.00
24486;BME280;13449;49.374;8.584;2023-02-13T07:52:33;102638.28;;;-0.34;100.00
24486;BME280;13449;49.374;8.584;2023-02-13T07:54:59;102634.78;;;0.06;100.00
24486;BME280;13449;49.374;8.584;2023-02-13T07:57:25;102639.56;;;-0.01;100.00
24486;BME280;13449;49.374;8.584;2023-02-13T07:59:52;102638.50;;;0.04;100.00
24486;BME280;13449;49.374;8.584;2023-02-13T08:02:21;102635.66;;;0.07;100.00
24486;BME280;13449;49.374;8.584;2023-02-13T08:04:49;102634.25;;;0.18;100.00
24486;BME280;13449;49.374;8.584;2023-02-13T08:07:18;102638.19;;;0.50;100.00
24486;BME280;13449;49.374;8.584;2023-02-13T08:09:45;102634.19;;;0.40;100.00
24486;BME280;13449;49.374;8.584;2023-02-13T08:12:32;102626.72;;;0.46;100.00
24486;BME280;13449;49.374;8.584;2023-02-13T08:15:00;102628.94;;;0.57;100.00
24486;BME280;13449;49.374;8.584;2023-02-13T08:17:27;102634.09;;;0.62;100.00
24486;BME280;13449;49.374;8.584;2023-02-13T08:19:53;102638.03;;;0.73;100.00
24486;BME280;13449;49.374;8.584;2023-02-13T08:22:24;102633.25;;;0.80;100.00
24486;BME280;13449;49.374;8.584;2023-02-13T08:24:51;102630.06;;;0.90;100.00
24486;BME280;13449;49.374;8.584;2023-02-13T08:27:17;102629.63;;;1.00;100.00
24486;BME280;13449;49.374;8.584;2023-02-13T08:29:48;102624.78;;;1.08;100.00
24486;BME280;13449;49.374;8.584;2023-02-13T08:32:16;102631.09;;;1.25;100.00
24486;BME280;13449;49.374;8.584;2023-02-13T08:34:43;102624.22;;;1.56;100.00
24486;BME280;13449;49.374;8.584;2023-02-13T08:37:09;102619.13;;;1.85;100.00
24486;BME280;13449;49.374;8.584;2023-02-13T08:39:36;102622.84;;;1.83;100.00
24486;BME280;13449;49.374;8.584;2023-02-13T08:42:05;102618.75;;;1.93;100.00
24486;BME280;13449;49.374;8.584;2023-02-13T08:44:34;102620.25;;;2.16;100.00
24486;BME280;13449;49.374;8.584;2023-02-13T08:47:00;102616.25;;;2.40;100.00
24486;BME280;13449;49.374;8.584;2023-02-13T08:49:29;102615.13;;;2.61;100.00
24486;BME280;13449;49.374;8.584;2023-02-13T08:51:56;102625.56;;;2.67;100.00
24486;BME280;13449;49.374;8.584;2023-02-13T08:54:22;102621.50;;;2.76;100.00
24486;BME280;13449;49.374;8.584;2023-02-13T08:56:48;102631.41;;;2.75;100.00
24486;BME280;13449;49.374;8.584;2023-02-13T08:59:15;102627.44;;;2.82;100.00
24486;BME280;13449;49.374;8.584;2023-02-13T09:01:41;102617.53;;;2.83;100.00
24486;BME280;13449;49.374;8.584;2023-02-13T09:04:10;102624.75;;;2.98;100.00
24486;BME280;13449;49.374;8.584;2023-02-13T09:06:37;102620.53;;;3.10;100.00
24486;BME280;13449;49.374;8.584;2023-02-13T09:09:04;102625.38;;;3.19;100.00
24486;BME280;13449;49.374;8.584;2023-02-13T09:11:30;102623.84;;;3.15;100.00
24486;BME280;13449;49.374;8.584;2023-02-13T09:13:57;102618.28;;;3.33;100.00
24486;BME280;13449;49.374;8.584;2023-02-13T09:16:23;102630.47;;;3.40;100.00
24486;BME280;13449;49.374;8.584;2023-02-13T09:18:52;102625.03;;;3.56;100.00
24486;BME280;13449;49.374;8.584;2023-02-13T09:21:20;102623.75;;;3.48;100.00
24486;BME280;13449;49.374;8.584;2023-02-13T09:23:48;102620.69;;;3.54;100.00
24486;BME280;13449;49.374;8.584;2023-02-13T09:26:17;102615.72;;;3.77;100.00
24486;BME280;13449;49.374;8.584;2023-02-13T09:28:46;102622.22;;;3.89;100.00
24486;BME280;13449;49.374;8.584;2023-02-13T09:31:18;102621.94;;;3.94;100.00
24486;BME280;13449;49.374;8.584;2023-02-13T09:33:47;102615.69;;;3.93;100.00
24486;BME280;13449;49.374;8.584;2023-02-13T09:36:18;102620.06;;;4.10;100.00
24486;BME280;13449;49.374;8.584;2023-02-13T09:38:47;102620.69;;;4.29;100.00
24486;BME280;13449;49.374;8.584;2023-02-13T09:41:17;102627.88;;;4.58;100.00
24486;BME280;13449;49.374;8.584;2023-02-13T09:46:16;102625.56;;;4.80;100.00
24486;BME280;13449;49.374;8.584;2023-02-13T09:48:44;102624.22;;;5.02;100.00
24486;BME280;13449;49.374;8.584;2023-02-13T09:51:17;102618.50;;;5.06;100.00
24486;BME280;13449;49.374;8.584;2023-02-13T09:54:11;102628.47;;;5.06;100.00
24486;BME280;13449;49.374;8.584;2023-02-13T09:57:01;102629.31;;;5.06;100.00
24486;BME280;13449;49.374;8.584;2023-02-13T10:08:05;102618.25;;;5.78;95.69
24486;BME280;13449;49.374;8.584;2023-02-13T10:16:52;102619.56;;;5.85;96.08
24486;BME280;13449;49.374;8.584;2023-02-13T10:22:24;102617.50;;;6.16;94.95
24486;BME280;13449;49.374;8.584;2023-02-13T10:25:02;102612.69;;;6.34;93.31
24486;BME280;13449;49.374;8.584;2023-02-13T10:27:53;102617.13;;;6.47;91.16
24486;BME280;13449;49.374;8.584;2023-02-13T10:30:24;102610.09;;;6.45;93.54
24486;BME280;13449;49.374;8.584;2023-02-13T10:33:27;102616.47;;;6.56;92.10
24486;BME280;13449;49.374;8.584;2023-02-13T10:36:17;102610.88;;;6.59;92.89
24486;BME280;13449;49.374;8.584;2023-02-13T10:39:14;102605.31;;;6.73;90.42
24486;BME280;13449;49.374;8.584;2023-02-13T10:45:27;102616.16;;;6.73;90.36
24486;BME280;13449;49.374;8.584;2023-02-13T10:56:17;102594.91;;;6.80;92.41
24486;BME280;13449;49.374;8.584;2023-02-13T10:59:07;102590.03;;;6.85;93.58
24486;BME280;13449;49.374;8.584;2023-02-13T11:01:56;102593.81;;;6.82;93.56
24486;BME280;13449;49.374;8.584;2023-02-13T11:04:31;102599.44;;;6.92;91.73
24486;BME280;13449;49.374;8.584;2023-02-13T11:07:11;102592.69;;;6.98;92.38
24486;BME280;13449;49.374;8.584;2023-02-13T11:09:41;102590.44;;;7.04;93.31
24486;BME280;13449;49.374;8.584;2023-02-13T11:12:26;102589.22;;;7.08;91.65
24486;BME280;13449;49.374;8.584;2023-02-13T11:15:00;102584.28;;;7.26;90.42
24486;BME280;13449;49.374;8.584;2023-02-13T11:17:33;102589.75;;;7.13;90.53
24486;BME280;13449;49.374;8.584;2023-02-13T11:22:54;102587.50;;;7.31;89.52
24486;BME280;13449;49.374;8.584;2023-02-13T11:25:29;102572.81;;;7.22;90.02
24486;BME280;13449;49.374;8.584;2023-02-13T11:28:17;102582.63;;;7.36;89.15
24486;BME280;13449;49.374;8.584;2023-02-13T11:30:45;102579.94;;;7.60;86.31
24486;BME280;13449;49.374;8.584;2023-02-13T11:33:23;102571.25;;;7.55;88.01
24486;BME280;13449;49.374;8.584;2023-02-13T11:36:31;102569.19;;;7.58;89.08
24486;BME280;13449;49.374;8.584;2023-02-13T11:39:05;102579.91;;;7.84;86.58
24486;BME280;13449;49.374;8.584;2023-02-13T11:41:38;102580.38;;;7.77;86.67
24486;BME280;13449;49.374;8.584;2023-02-13T11:44:33;102577.63;;;7.90;84.43
24486;BME280;13449;49.374;8.584;2023-02-13T11:47:00;102574.03;;;7.90;84.58
24486;BME280;13449;49.374;8.584;2023-02-13T11:49:38;102572.53;;;7.86;85.47
24486;BME280;13449;49.374;8.584;2023-02-13T11:52:23;102558.84;;;7.87;85.39
24486;BME280;13449;49.374;8.584;2023-02-13T11:58:24;102561.94;;;7.94;85.76
24486;BME280;13449;49.374;8.584;2023-02-13T12:06:41;102567.72;;;8.24;80.73
24486;BME280;13449;49.374;8.584;2023-02-13T12:09:25;102558.44;;;8.26;80.67
24486;BME280;13449;49.374;8.584;2023-02-13T12:11:55;102568.75;;;8.34;79.13
24486;BME280;13449;49.374;8.584;2023-02-13T12:14:27;102557.88;;;8.34;79.87
24486;BME280;13449;49.374;8.584;2023-02-13T12:19:36;102554.66;;;8.29;80.47
24486;BME280;13449;49.374;8.584;2023-02-13T12:22:39;102546.22;;;8.21;79.93
24486;BME280;13449;49.374;8.584;2023-02-13T12:30:34;102550.00;;;8.64;77.06
24486;BME280;13449;49.374;8.584;2023-02-13T12:33:22;102542.81;;;8.52;78.35
24486;BME280;13449;49.374;8.584;2023-02-13T12:36:23;102545.19;;;8.68;77.60
24486;BME280;13449;49.374;8.584;2023-02-13T12:45:07;102530.72;;;8.67;79.34
24486;BME280;13449;49.374;8.584;2023-02-13T12:47:58;102529.75;;;8.68;79.16
24486;BME280;13449;49.374;8.584;2023-02-13T13:01:57;102508.47;;;8.85;77.89
24486;BME280;13449;49.374;8.584;2023-02-13T13:04:51;102508.69;;;8.82;79.10
24486;BME280;13449;49.374;8.584;2023-02-13T13:16:24;102506.59;;;8.96;77.47
24486;BME280;13449;49.374;8.584;2023-02-13T13:21:56;102506.72;;;9.06;77.21
24486;BME280;13449;49.374;8.584;2023-02-13T13:27:32;102517.63;;;9.38;73.80
24486;BME280;13449;49.374;8.584;2023-02-13T13:30:05;102506.41;;;9.20;76.13
24486;BME280;13449;49.374;8.584;2023-02-13T13:32:39;102483.69;;;9.10;77.39
24486;BME280;13449;49.374;8.584;2023-02-13T13:35:13;102498.28;;;9.09;75.97
24486;BME280;13449;49.374;8.584;2023-02-13T13:40:41;102481.09;;;9.08;76.75
24486;BME280;13449;49.374;8.584;2023-02-13T13:43:51;102485.28;;;9.12;76.74
24486;BME280;13449;49.374;8.584;2023-02-13T13:51:43;102477.88;;;9.14;77.08
24486;BME280;13449;49.374;8.584;2023-02-13T14:05:29;102477.69;;;9.27;75.67
24486;BME280;13449;49.374;8.584;2023-02-13T14:08:01;102475.72;;;9.29;75.87
24486;BME280;13449;49.374;8.584;2023-02-13T14:13:05;102452.59;;;9.23;76.94
24486;BME280;13449;49.374;8.584;2023-02-13T14:23:45;102452.91;;;9.30;75.90
24486;BME280;13449;49.374;8.584;2023-02-13T14:31:28;102451.25;;;9.50;74.40
24486;BME280;13449;49.374;8.584;2023-02-13T14:36:37;102464.34;;;9.77;72.66
24486;BME280;13449;49.374;8.584;2023-02-13T14:39:43;102442.63;;;9.65;74.96
24486;BME280;13449;49.374;8.584;2023-02-13T14:42:29;102459.91;;;9.76;73.10
24486;BME280;13449;49.374;8.584;2023-02-13T14:45:04;102457.78;;;9.79;72.19
24486;BME280;13449;49.374;8.584;2023-02-13T14:47:49;102456.25;;;9.65;72.25
24486;BME280;13449;49.374;8.584;2023-02-13T14:50:25;102444.16;;;9.58;72.71
24486;BME280;13449;49.374;8.584;2023-02-13T14:53:09;102451.06;;;9.62;72.06
24486;BME280;13449;49.374;8.584;2023-02-13T14:55:44;102459.19;;;9.74;71.75
24486;BME280;13449;49.374;8.584;2023-02-13T14:58:14;102448.72;;;9.79;71.20
24486;BME280;13449;49.374;8.584;2023-02-13T15:03:58;102455.03;;;9.79;70.90
24486;BME280;13449;49.374;8.584;2023-02-13T15:06:35;102439.56;;;9.80;71.98
24486;BME280;13449;49.374;8.584;2023-02-13T15:09:14;102465.97;;;10.00;70.02
24486;BME280;13449;49.374;8.584;2023-02-13T15:11:42;102454.84;;;9.92;70.82
24486;BME280;13449;49.374;8.584;2023-02-13T15:14:33;102458.78;;;9.99;69.85
24486;BME280;13449;49.374;8.584;2023-02-13T15:17:09;102464.22;;;9.99;69.39
24486;BME280;13449;49.374;8.584;2023-02-13T15:19:44;102453.50;;;9.86;70.42
24486;BME280;13449;49.374;8.584;2023-02-13T15:24:59;102446.22;;;9.66;70.70
24486;BME280;13449;49.374;8.584;2023-02-13T15:27:33;102453.47;;;9.77;69.70
24486;BME280;13449;49.374;8.584;2023-02-13T15:30:32;102453.47;;;9.77;70.00
24486;BME280;13449;49.374;8.584;2023-02-13T15:33:15;102451.00;;;9.74;69.92
24486;BME280;13449;49.374;8.584;2023-02-13T15:35:46;102451.22;;;9.82;69.43
24486;BME280;13449;49.374;8.584;2023-02-13T15:38:29;102452.19;;;9.81;69.27
24486;BME280;13449;49.374;8.584;2023-02-13T15:41:03;102455.13;;;9.89;68.96
24486;BME280;13449;49.374;8.584;2023-02-13T15:43:33;102449.00;;;9.76;69.12
24486;BME280;13449;49.374;8.584;2023-02-13T15:46:05;102455.19;;;9.78;69.17
24486;BME280;13449;49.374;8.584;2023-02-13T15:48:35;102433.25;;;9.58;70.64
24486;BME280;13449;49.374;8.584;2023-02-13T15:51:06;102434.47;;;9.65;70.64
24486;BME280;13449;49.374;8.584;2023-02-13T15:53:54;102435.72;;;9.61;70.13
24486;BME280;13449;49.374;8.584;2023-02-13T15:56:22;102418.50;;;9.40;71.91
24486;BME280;13449;49.374;8.584;2023-02-13T15:58:50;102441.56;;;9.78;69.63
24486;BME280;13449;49.374;8.584;2023-02-13T16:01:17;102418.22;;;9.43;71.31
24486;BME280;13449;49.374;8.584;2023-02-13T16:03:49;102425.88;;;9.49;70.87
24486;BME280;13449;49.374;8.584;2023-02-13T16:06:17;102417.53;;;9.30;71.68
24486;BME280;13449;49.374;8.584;2023-02-13T16:11:23;102422.31;;;9.17;71.49
24486;BME280;13449;49.374;8.584;2023-02-13T16:13:59;102423.56;;;9.13;71.60
24486;BME280;13449;49.374;8.584;2023-02-13T16:16:30;102420.78;;;9.24;71.31